sensor_id;sensor_type;location;lat;lon;timestamp;P1;durP1;ratioP1;P2;durP2;ratioP2
57307;SDS011;43152;50.968;18.214;2023-07-16T00:08:19;4.40;;;2.50;;
57307;SDS011;43152;50.968;18.214;2023-07-16T00:18:01;5.70;;;3.00;;
57307;SDS011;43152;50.968;18.214;2023-07-16T00:27:44;3.80;;;2.50;;
57307;SDS011;43152;50.968;18.214;2023-07-16T00:37:28;5.60;;;2.50;;
57307;SDS011;43152;50.968;18.214;2023-07-16T00:47:10;4.80;;;1.70;;
57307;SDS011;43152;50.968;18.214;2023-07-16T00:56:55;4.60;;;1.30;;
57307;SDS011;43152;50.968;18.214;2023-07-16T01:06:41;8.20;;;3.50;;
57307;SDS011;43152;50.968;18.214;2023-07-16T01:16:26;10.00;;;3.10;;
57307;SDS011;43152;50.968;18.214;2023-07-16T01:36:45;6.00;;;2.40;;
57307;SDS011;43152;50.968;18.214;2023-07-16T01:46:29;6.70;;;2.70;;
57307;SDS011;43152;50.968;18.214;2023-07-16T01:56:11;6.70;;;3.50;;
57307;SDS011;43152;50.968;18.214;2023-07-16T02:05:54;6.60;;;4.10;;
57307;SDS011;43152;50.968;18.214;2023-07-16T02:15:38;5.50;;;3.00;;
57307;SDS011;43152;50.968;18.214;2023-07-16T02:32:39;5.70;;;2.50;;
57307;SDS011;43152;50.968;18.214;2023-07-16T02:42:21;4.40;;;1.90;;
57307;SDS011;43152;50.968;18.214;2023-07-16T02:52:03;9.40;;;4.60;;
57307;SDS011;43152;50.968;18.214;2023-07-16T03:01:45;5.00;;;1.70;;
57307;SDS011;43152;50.968;18.214;2023-07-16T03:11:28;9.30;;;3.10;;
57307;SDS011;43152;50.968;18.214;2023-07-16T03:21:13;6.70;;;3.80;;
57307;SDS011;43152;50.968;18.214;2023-07-16T03:30:56;5.60;;;2.70;;
57307;SDS011;43152;50.968;18.214;2023-07-16T03:40:41;11.10;;;5.10;;
57307;SDS011;43152;50.968;18.214;2023-07-16T03:50:24;5.30;;;2.70;;
57307;SDS011;43152;50.968;18.214;2023-07-16T04:00:07;7.30;;;4.10;;
57307;SDS011;43152;50.968;18.214;2023-07-16T04:09:53;6.00;;;3.20;;
57307;SDS011;43152;50.968;18.214;2023-07-16T04:19:37;7.90;;;3.10;;
57307;SDS011;43152;50.968;18.214;2023-07-16T04:29:19;4.70;;;2.80;;
57307;SDS011;43152;50.968;18.214;2023-07-16T04:39:02;7.00;;;3.20;;
57307;SDS011;43152;50.968;18.214;2023-07-16T04:48:45;5.80;;;3.10;;
57307;SDS011;43152;50.968;18.214;2023-07-16T04:58:27;4.70;;;2.70;;
57307;SDS011;43152;50.968;18.214;2023-07-16T05:08:08;10.60;;;5.60;;
57307;SDS011;43152;50.968;18.214;2023-07-16T05:17:50;6.10;;;4.20;;
57307;SDS011;43152;50.968;18.214;2023-07-16T05:27:33;4.40;;;2.90;;
57307;SDS011;43152;50.968;18.214;2023-07-16T05:37:14;4.90;;;3.30;;
57307;SDS011;43152;50.968;18.214;2023-07-16T05:46:56;11.40;;;3.20;;
57307;SDS011;43152;50.968;18.214;2023-07-16T05:56:40;5.10;;;2.20;;
57307;SDS011;43152;50.968;18.214;2023-07-16T06:06:22;7.70;;;2.70;;
57307;SDS011;43152;50.968;18.214;2023-07-16T06:16:04;6.40;;;2.70;;
57307;SDS011;43152;50.968;18.214;2023-07-16T06:25:46;3.10;;;1.60;;
57307;SDS011;43152;50.968;18.214;2023-07-16T06:48:34;11.10;;;2.50;;
57307;SDS011;43152;50.968;18.214;2023-07-16T06:58:16;3.20;;;1.10;;
57307;SDS011;43152;50.968;18.214;2023-07-16T07:08:01;2.60;;;1.10;;
57307;SDS011;43152;50.968;18.214;2023-07-16T07:17:45;3.80;;;1.40;;
57307;SDS011;43152;50.968;18.214;2023-07-16T07:27:29;1.10;;;0.70;;
57307;SDS011;43152;50.968;18.214;2023-07-16T07:37:12;6.10;;;1.00;;
57307;SDS011;43152;50.968;18.214;2023-07-16T07:46:55;3.40;;;0.60;;
57307;SDS011;43152;50.968;18.214;2023-07-16T07:56:40;1.60;;;0.70;;
57307;SDS011;43152;50.968;18.214;2023-07-16T08:13:40;8.40;;;1.80;;
57307;SDS011;43152;50.968;18.214;2023-07-16T08:23:22;2.30;;;0.70;;
57307;SDS011;43152;50.968;18.214;2023-07-16T08:33:05;3.90;;;1.70;;
57307;SDS011;43152;50.968;18.214;2023-07-16T08:42:48;6.20;;;0.90;;
57307;SDS011;43152;50.968;18.214;2023-07-16T08:52:32;4.60;;;1.20;;
57307;SDS011;43152;50.968;18.214;2023-07-16T09:02:17;1.20;;;0.70;;
57307;SDS011;43152;50.968;18.214;2023-07-16T09:12:01;1.80;;;0.60;;
57307;SDS011;43152;50.968;18.214;2023-07-16T09:21:48;4.00;;;1.10;;
57307;SDS011;43152;50.968;18.214;2023-07-16T09:31:38;1.60;;;0.70;;
57307;SDS011;43152;50.968;18.214;2023-07-16T09:41:20;2.60;;;0.90;;
57307;SDS011;43152;50.968;18.214;2023-07-16T09:51:02;3.00;;;1.00;;
57307;SDS011;43152;50.968;18.214;2023-07-16T10:00:47;3.30;;;1.30;;
57307;SDS011;43152;50.968;18.214;2023-07-16T10:10:41;2.80;;;0.80;;
57307;SDS011;43152;50.968;18.214;2023-07-16T10:27:49;2.40;;;0.70;;
57307;SDS011;43152;50.968;18.214;2023-07-16T10:37:36;1.20;;;0.50;;
57307;SDS011;43152;50.968;18.214;2023-07-16T10:47:34;0.90;;;0.40;;
57307;SDS011;43152;50.968;18.214;2023-07-16T10:57:20;1.40;;;0.50;;
57307;SDS011;43152;50.968;18.214;2023-07-16T11:07:09;1.00;;;0.50;;
57307;SDS011;43152;50.968;18.214;2023-07-16T11:17:04;5.00;;;0.70;;
57307;SDS011;43152;50.968;18.214;2023-07-16T11:26:53;0.50;;;0.40;;
57307;SDS011;43152;50.968;18.214;2023-07-16T11:36:41;2.20;;;0.80;;
57307;SDS011;43152;50.968;18.214;2023-07-16T11:46:33;1.90;;;0.80;;
57307;SDS011;43152;50.968;18.214;2023-07-16T11:56:20;5.10;;;0.50;;
57307;SDS011;43152;50.968;18.214;2023-07-16T12:06:05;0.60;;;0.40;;
57307;SDS011;43152;50.968;18.214;2023-07-16T12:15:47;1.20;;;0.60;;
57307;SDS011;43152;50.968;18.214;2023-07-16T12:25:30;0.90;;;0.40;;
57307;SDS011;43152;50.968;18.214;2023-07-16T12:35:14;1.60;;;0.80;;
57307;SDS011;43152;50.968;18.214;2023-07-16T12:44:57;2.50;;;1.00;;
57307;SDS011;43152;50.968;18.214;2023-07-16T12:54:40;3.50;;;1.20;;
57307;SDS011;43152;50.968;18.214;2023-07-16T13:04:23;2.40;;;0.70;;
57307;SDS011;43152;50.968;18.214;2023-07-16T13:14:06;1.50;;;0.50;;
57307;SDS011;43152;50.968;18.214;2023-07-16T13:23:49;3.20;;;0.80;;
57307;SDS011;43152;50.968;18.214;2023-07-16T13:33:31;2.10;;;0.80;;
57307;SDS011;43152;50.968;18.214;2023-07-16T13:43:16;2.70;;;1.10;;
57307;SDS011;43152;50.968;18.214;2023-07-16T13:53:07;3.50;;;1.80;;
57307;SDS011;43152;50.968;18.214;2023-07-16T14:02:51;1.20;;;0.60;;
57307;SDS011;43152;50.968;18.214;2023-07-16T14:12:34;1.90;;;0.80;;
57307;SDS011;43152;50.968;18.214;2023-07-16T14:29:36;3.10;;;1.20;;
57307;SDS011;43152;50.968;18.214;2023-07-16T14:39:19;4.10;;;1.00;;
57307;SDS011;43152;50.968;18.214;2023-07-16T14:49:03;2.30;;;1.20;;
57307;SDS011;43152;50.968;18.214;2023-07-16T14:58:46;0.60;;;0.30;;
57307;SDS011;43152;50.968;18.214;2023-07-16T15:08:31;2.50;;;0.90;;
57307;SDS011;43152;50.968;18.214;2023-07-16T15:29:34;8.90;;;0.80;;
57307;SDS011;43152;50.968;18.214;2023-07-16T15:39:17;1.10;;;0.60;;
57307;SDS011;43152;50.968;18.214;2023-07-16T15:49:00;3.80;;;0.80;;
57307;SDS011;43152;50.968;18.214;2023-07-16T15:58:43;1.50;;;0.70;;
57307;SDS011;43152;50.968;18.214;2023-07-16T16:08:25;4.10;;;1.00;;
57307;SDS011;43152;50.968;18.214;2023-07-16T16:18:09;1.40;;;0.70;;
57307;SDS011;43152;50.968;18.214;2023-07-16T16:27:54;2.80;;;1.00;;
57307;SDS011;43152;50.968;18.214;2023-07-16T16:37:38;3.00;;;0.90;;
57307;SDS011;43152;50.968;18.214;2023-07-16T16:47:21;2.40;;;1.00;;
57307;SDS011;43152;50.968;18.214;2023-07-16T16:57:05;2.80;;;0.90;;
57307;SDS011;43152;50.968;18.214;2023-07-16T17:06:52;2.50;;;0.90;;
57307;SDS011;43152;50.968;18.214;2023-07-16T17:16:38;2.60;;;1.20;;
57307;SDS011;43152;50.968;18.214;2023-07-16T17:26:21;1.50;;;0.80;;
57307;SDS011;43152;50.968;18.214;2023-07-16T17:36:04;2.90;;;0.80;;
57307;SDS011;43152;50.968;18.214;2023-07-16T17:45:47;2.20;;;0.80;;
57307;SDS011;43152;50.968;18.214;2023-07-16T18:02:48;4.20;;;1.00;;
57307;SDS011;43152;50.968;18.214;2023-07-16T18:12:32;14.40;;;1.60;;
57307;SDS011;43152;50.968;18.214;2023-07-16T18:22:14;1.10;;;0.40;;
57307;SDS011;43152;50.968;18.214;2023-07-16T18:31:58;2.20;;;0.80;;
57307;SDS011;43152;50.968;18.214;2023-07-16T18:41:41;3.00;;;1.10;;
57307;SDS011;43152;50.968;18.214;2023-07-16T18:51:25;1.70;;;0.70;;
57307;SDS011;43152;50.968;18.214;2023-07-16T19:01:09;5.00;;;1.40;;
57307;SDS011;43152;50.968;18.214;2023-07-16T19:10:52;2.20;;;0.80;;
57307;SDS011;43152;50.968;18.214;2023-07-16T19:20:36;2.60;;;0.80;;
57307;SDS011;43152;50.968;18.214;2023-07-16T19:30:20;3.30;;;0.80;;
57307;SDS011;43152;50.968;18.214;2023-07-16T19:40:05;7.00;;;2.00;;
57307;SDS011;43152;50.968;18.214;2023-07-16T19:49:49;5.30;;;1.90;;
57307;SDS011;43152;50.968;18.214;2023-07-16T19:59:32;9.50;;;1.70;;
57307;SDS011;43152;50.968;18.214;2023-07-16T20:09:14;8.50;;;2.90;;
57307;SDS011;43152;50.968;18.214;2023-07-16T20:18:57;5.60;;;1.80;;
57307;SDS011;43152;50.968;18.214;2023-07-16T20:28:40;10.40;;;4.20;;
57307;SDS011;43152;50.968;18.214;2023-07-16T20:38:24;8.70;;;3.20;;
57307;SDS011;43152;50.968;18.214;2023-07-16T20:48:12;14.90;;;3.50;;
57307;SDS011;43152;50.968;18.214;2023-07-16T20:57:58;11.60;;;2.50;;
57307;SDS011;43152;50.968;18.214;2023-07-16T21:07:44;6.20;;;1.30;;
57307;SDS011;43152;50.968;18.214;2023-07-16T21:17:35;10.50;;;2.50;;
57307;SDS011;43152;50.968;18.214;2023-07-16T21:27:21;5.30;;;1.90;;
57307;SDS011;43152;50.968;18.214;2023-07-16T21:37:12;2.70;;;1.70;;
57307;SDS011;43152;50.968;18.214;2023-07-16T21:46:56;4.20;;;1.80;;
57307;SDS011;43152;50.968;18.214;2023-07-16T21:56:39;5.10;;;2.00;;
57307;SDS011;43152;50.968;18.214;2023-07-16T22:21:34;4.80;;;1.10;;
57307;SDS011;43152;50.968;18.214;2023-07-16T22:31:19;6.00;;;1.90;;
57307;SDS011;43152;50.968;18.214;2023-07-16T22:41:01;4.80;;;1.80;;
57307;SDS011;43152;50.968;18.214;2023-07-16T22:50:44;6.60;;;1.90;;
57307;SDS011;43152;50.968;18.214;2023-07-16T23:00:29;4.70;;;1.60;;
57307;SDS011;43152;50.968;18.214;2023-07-16T23:10:13;1.80;;;0.90;;
57307;SDS011;43152;50.968;18.214;2023-07-16T23:19:56;15.40;;;3.10;;
57307;SDS011;43152;50.968;18.214;2023-07-16T23:29:39;7.50;;;1.70;;
57307;SDS011;43152;50.968;18.214;2023-07-16T23:46:43;7.70;;;2.10;;
57307;SDS011;43152;50.968;18.214;2023-07-16T23:56:26;6.20;;;3.10;;
